3TX8 weather

CLOSED Drop Field
Justin, Texas, United States

Public forecast

Using degrees Fahrenheit for public forecast. Weather courtesy of forecast.io.

Closest aviation weather report (METAR) to Drop Field

Closest report is Fort Worth Alliance Airport, 8.4 nm (15.5 km) S. Retrieved 2020/08/05 15:53 UTC (46 minutes ago):

KAFW 051553Z 06013KT 10SM FEW090 SCT120 BKN220 26/18 A3006 RMK AO2 LTG DSNT N SLP163 CB DSNT N-E MOV SE SHRA DSNT NE T02610183

Closest aviation forecast (TAF) to Drop Field

Closest forecast is Fort Worth Alliance Airport, 8.4 nm (15.5 km) S. Retrieved 2020/08/05 12:22 UTC (4 hours ago):

TAF KAFW 051120Z 0512/0612 09006KT P6SM BKN110 FM051500 04010KT P6SM VCTS BKN100CB FM051800 13009KT P6SM SCT100